Terminal Aerodrome Forecast
Issued by NWS

Home | Current Version | Previous Version | Text Only | Print | Product List | Glossary On
Versions: 1 2 3 4 5 6 7 8 9 10 11 12 13 14 15 16 17
647
FTUS45 KGGW 192340
TAFSDY
TAF
KSDY 192340Z 2000/2024 09014KT P6SM BKN100
     FM200400 08006KT P6SM BKN130
     FM200900 VRB04KT 6SM BR BKN023
     FM201400 11005KT P6SM BKN027
     FM201600 12007KT P6SM BKN045=

USA.gov is the U.S. government's official web portal to all federal, state and local government web resources and services.